KDWH/DWH METAR and TAF weather

Enter ICAO airport designator
Station Type Date Time Source
KDWH METAR 2020/04/10 16:53 UTC NOAA

KDWH 101653Z 07012G18KT 10SM CLR 22/12 A3006 RMK AO2 SLP176 T02220117


Station Type Date Time Source
KDWH Decoded METAR 2020/04/10 16:53 UTC NOAA

HOUSTON HOOKS MEMORIAL, TX, United States (KDWH) 30-04N 95-33W 46M
Apr 10, 2020 - 12:53 PM EDT / 2020.04.10 1653 UTC
Wind: from the ENE (070 degrees) at 14 MPH (12 KT) gusting to 21 MPH (18 KT):0
Visibility: 10 mile(s):0
Sky conditions: clear
Temperature: 72.0 F (22.2 C)
Dew Point: 53.1 F (11.7 C)
Relative Humidity: 51%
Pressure (altimeter): 30.06 in. Hg (1017 hPa)
ob: KDWH 101653Z 07012G18KT 10SM CLR 22/12 A3006 RMK AO2 SLP176 T02220117
cycle: 17

Station Type Date Time Source
KDWH TAF 2017/02/07 15:09 UTC NOAA

TAF
AMD KDWH 071507Z 0715/0812 23010KT P6SM BKN015
TEMPO 0715/0719 SCT015
FM071900 25010KT P6SM SCT025
FM080100 22005KT P6SM SCT250
TEMPO 0807/0809 3SM BR BKN013
FM080900 VRB03KT 2SM BR OVC008

Example: see airport list